createdAt,value
2022-12-11T00:00:40.564Z,-1.50
2022-12-11T00:03:27.564Z,-1.50
2022-12-11T00:05:54.725Z,-1.50
2022-12-11T00:08:21.676Z,-1.50
2022-12-11T00:10:50.139Z,-1.60
2022-12-11T00:13:17.242Z,-1.60
2022-12-11T00:15:44.667Z,-1.60
2022-12-11T00:18:15.265Z,-1.60
2022-12-11T00:20:42.725Z,-1.60
2022-12-11T00:23:10.951Z,-1.70
2022-12-11T00:25:46.134Z,-1.70
2022-12-11T00:28:14.950Z,-1.70
2022-12-11T00:30:43.155Z,-1.70
2022-12-11T00:33:11.499Z,-1.70
2022-12-11T00:35:44.465Z,-1.70
2022-12-11T00:38:20.460Z,-1.70
2022-12-11T00:40:49.170Z,-1.70
2022-12-11T00:43:16.588Z,-1.70
2022-12-11T00:45:46.686Z,-1.70
2022-12-11T00:48:14.124Z,-1.70
2022-12-11T00:50:41.561Z,-1.70
2022-12-11T00:53:08.453Z,-1.80
2022-12-11T00:55:41.327Z,-1.80
2022-12-11T00:58:09.260Z,-1.80
2022-12-11T01:00:36.654Z,-1.80
2022-12-11T01:03:03.977Z,-1.80
2022-12-11T01:05:31.959Z,-1.80
2022-12-11T01:07:58.913Z,-1.80
2022-12-11T01:10:26.907Z,-1.80
2022-12-11T01:12:59.506Z,-1.80
2022-12-11T01:15:32.083Z,-1.80
2022-12-11T01:17:59.486Z,-1.80
2022-12-11T01:20:28.152Z,-1.80
2022-12-11T01:22:58.844Z,-1.80
2022-12-11T01:25:28.271Z,-1.80
2022-12-11T01:27:56.299Z,-1.70
2022-12-11T01:30:25.393Z,-1.80
2022-12-11T01:32:52.739Z,-1.80
2022-12-11T01:35:20.388Z,-1.80
2022-12-11T01:37:47.810Z,-1.80
2022-12-11T01:40:17.463Z,-1.80
2022-12-11T01:42:44.893Z,-1.80
2022-12-11T01:45:22.497Z,-1.80
2022-12-11T01:47:55.786Z,-1.90
2022-12-11T01:50:24.590Z,-1.90
2022-12-11T01:52:51.865Z,-1.90
2022-12-11T01:55:20.472Z,-1.90
2022-12-11T01:57:51.103Z,-1.90
2022-12-11T02:00:19.566Z,-1.90
2022-12-11T02:02:46.527Z,-1.90
2022-12-11T02:05:14.197Z,-1.90
2022-12-11T02:07:48.405Z,-1.90
2022-12-11T02:10:16.111Z,-1.90
2022-12-11T02:12:49.089Z,-1.90
2022-12-11T02:15:35.839Z,-1.90
2022-12-11T02:18:29.973Z,-1.90
2022-12-11T02:21:03.008Z,-1.90
2022-12-11T02:23:32.684Z,-1.90
2022-12-11T02:26:17.912Z,-1.80
2022-12-11T02:28:49.700Z,-1.80
2022-12-11T02:31:29.429Z,-1.80
2022-12-11T02:34:10.265Z,-1.80
2022-12-11T02:36:41.573Z,-1.80
2022-12-11T02:39:12.552Z,-1.90
2022-12-11T02:41:45.100Z,-1.90
2022-12-11T02:44:14.594Z,-1.90
2022-12-11T02:46:44.263Z,-1.80
2022-12-11T02:49:12.696Z,-1.90
2022-12-11T02:51:41.706Z,-1.90
2022-12-11T02:54:28.046Z,-1.90
2022-12-11T02:57:12.024Z,-1.90
2022-12-11T02:59:42.031Z,-1.90
2022-12-11T03:02:11.049Z,-2.00
2022-12-11T03:04:39.042Z,-2.00
2022-12-11T03:07:18.087Z,-2.00
2022-12-11T03:09:47.494Z,-2.00
2022-12-11T03:12:19.421Z,-1.90
2022-12-11T03:14:48.070Z,-1.90
2022-12-11T03:17:32.666Z,-1.90
2022-12-11T03:20:07.421Z,-1.90
2022-12-11T03:22:38.676Z,-1.90
2022-12-11T03:25:22.064Z,-1.90
2022-12-11T03:27:57.826Z,-1.90
2022-12-11T03:30:27.639Z,-1.90
2022-12-11T03:33:07.789Z,-1.90
2022-12-11T03:35:37.506Z,-1.90
2022-12-11T03:38:20.997Z,-1.90
2022-12-11T03:40:50.289Z,-1.90
2022-12-11T03:43:18.377Z,-1.90
2022-12-11T03:45:47.002Z,-1.90
2022-12-11T03:48:16.913Z,-1.90
2022-12-11T03:50:45.947Z,-1.90
2022-12-11T03:53:13.159Z,-1.90
2022-12-11T03:55:41.500Z,-1.90
2022-12-11T03:58:08.772Z,-1.90
2022-12-11T04:00:36.232Z,-1.90
2022-12-11T04:03:16.566Z,-1.90
2022-12-11T04:05:49.492Z,-1.90
2022-12-11T04:08:18.423Z,-1.90
2022-12-11T04:10:45.313Z,-1.90
2022-12-11T04:13:13.357Z,-1.90
2022-12-11T04:15:40.916Z,-1.90
2022-12-11T04:18:28.212Z,-1.90
2022-12-11T04:21:14.663Z,-1.90
2022-12-11T04:24:00.790Z,-1.90
2022-12-11T04:26:27.762Z,-1.90
2022-12-11T04:28:55.064Z,-2.00
2022-12-11T04:31:22.828Z,-2.00
2022-12-11T04:33:50.131Z,-2.00
2022-12-11T04:36:17.459Z,-2.00
2022-12-11T04:38:44.753Z,-2.00
2022-12-11T04:41:13.434Z,-2.00
2022-12-11T04:43:41.127Z,-2.00
2022-12-11T04:46:09.415Z,-2.00
2022-12-11T04:48:38.372Z,-2.00
2022-12-11T04:51:05.911Z,-2.10
2022-12-11T04:53:33.343Z,-2.10
2022-12-11T04:56:00.235Z,-2.10
2022-12-11T04:58:28.090Z,-2.10
2022-12-11T05:00:54.962Z,-2.10
2022-12-11T05:03:23.608Z,-2.10
2022-12-11T05:05:52.504Z,-2.10
2022-12-11T05:08:21.024Z,-2.10
2022-12-11T05:10:58.825Z,-2.10
2022-12-11T05:13:27.365Z,-2.00
2022-12-11T05:15:54.450Z,-2.00
2022-12-11T05:18:21.805Z,-2.00
2022-12-11T05:20:58.593Z,-2.00
2022-12-11T05:23:26.448Z,-2.00
2022-12-11T05:26:02.153Z,-2.00
2022-12-11T05:28:34.048Z,-2.00
2022-12-11T05:31:04.028Z,-2.00
2022-12-11T05:33:32.077Z,-2.10
2022-12-11T05:35:59.169Z,-2.10
2022-12-11T05:38:27.177Z,-2.10
2022-12-11T05:41:02.728Z,-2.10
2022-12-11T05:43:33.462Z,-2.00
2022-12-11T05:46:10.436Z,-2.00
2022-12-11T05:48:38.181Z,-2.10
2022-12-11T05:51:06.152Z,-2.10
2022-12-11T05:53:33.601Z,-2.10
2022-12-11T05:56:10.177Z,-2.20
2022-12-11T05:58:39.687Z,-2.10
2022-12-11T06:01:20.089Z,-2.20
2022-12-11T06:03:48.024Z,-2.20
2022-12-11T06:06:15.437Z,-2.20
2022-12-11T06:08:43.135Z,-2.20
2022-12-11T06:11:12.467Z,-2.20
2022-12-11T06:13:39.826Z,-2.20
2022-12-11T06:16:08.368Z,-2.20
2022-12-11T06:18:37.922Z,-2.20
2022-12-11T06:21:20.025Z,-2.20
2022-12-11T06:23:48.802Z,-2.10
2022-12-11T06:26:16.633Z,-2.10
2022-12-11T06:28:44.237Z,-2.20
2022-12-11T06:31:11.513Z,-2.10
2022-12-11T06:33:39.718Z,-2.20
2022-12-11T06:36:10.249Z,-2.20
2022-12-11T06:38:38.740Z,-2.20
2022-12-11T06:41:07.057Z,-2.20
2022-12-11T06:43:36.624Z,-2.20
2022-12-11T06:46:05.365Z,-2.20
2022-12-11T06:48:32.881Z,-2.20
2022-12-11T06:50:59.866Z,-2.20
2022-12-11T06:53:27.092Z,-2.20
2022-12-11T06:55:53.984Z,-2.20
2022-12-11T06:58:21.147Z,-2.30
2022-12-11T07:00:48.368Z,-2.30
2022-12-11T07:03:15.905Z,-2.40
2022-12-11T07:05:42.841Z,-2.40
2022-12-11T07:08:10.477Z,-2.40
2022-12-11T07:10:37.378Z,-2.40
2022-12-11T07:13:04.864Z,-2.40
2022-12-11T07:15:33.571Z,-2.40
2022-12-11T07:18:02.826Z,-2.40
2022-12-11T07:20:29.870Z,-2.40
2022-12-11T07:22:57.298Z,-2.40
2022-12-11T07:25:24.135Z,-2.40
2022-12-11T07:27:51.305Z,-2.40
2022-12-11T07:30:18.259Z,-2.40
2022-12-11T07:32:45.544Z,-2.40
2022-12-11T07:35:12.726Z,-2.40
2022-12-11T07:37:41.355Z,-2.40
2022-12-11T07:40:09.062Z,-2.40
2022-12-11T07:42:37.627Z,-2.40
2022-12-11T07:45:07.571Z,-2.40
2022-12-11T07:47:35.027Z,-2.40
2022-12-11T07:50:01.946Z,-2.40
2022-12-11T07:52:29.386Z,-2.40
2022-12-11T07:54:56.270Z,-2.40
2022-12-11T07:57:23.486Z,-2.40
2022-12-11T07:59:50.476Z,-2.50
2022-12-11T08:02:18.033Z,-2.50
2022-12-11T08:04:45.073Z,-2.50
2022-12-11T08:07:12.732Z,-2.50
2022-12-11T08:09:39.831Z,-2.50
2022-12-11T08:12:06.977Z,-2.50
2022-12-11T08:14:33.976Z,-2.50
2022-12-11T08:17:02.490Z,-2.60
2022-12-11T08:19:29.582Z,-2.50
2022-12-11T08:21:56.857Z,-2.50
2022-12-11T08:24:23.696Z,-2.50
2022-12-11T08:26:51.233Z,-2.40
2022-12-11T08:29:18.181Z,-2.50
2022-12-11T08:31:45.666Z,-2.40
2022-12-11T08:34:14.163Z,-2.50
2022-12-11T08:36:41.436Z,-2.50
2022-12-11T08:39:08.332Z,-2.50
2022-12-11T08:41:35.585Z,-2.50
2022-12-11T08:44:02.646Z,-2.50
2022-12-11T08:46:32.253Z,-2.50
2022-12-11T08:48:59.945Z,-2.50
2022-12-11T08:51:28.728Z,-2.50
2022-12-11T08:54:00.375Z,-2.50
2022-12-11T08:56:28.770Z,-2.50
2022-12-11T08:58:55.858Z,-2.40
2022-12-11T09:01:26.472Z,-2.40
2022-12-11T09:03:55.142Z,-2.40
2022-12-11T09:06:24.744Z,-2.40
2022-12-11T09:08:53.582Z,-2.40
2022-12-11T09:11:27.080Z,-2.40
2022-12-11T09:13:54.329Z,-2.40
2022-12-11T09:16:24.002Z,-2.40
2022-12-11T09:18:53.573Z,-2.40
2022-12-11T09:21:23.580Z,-2.40
2022-12-11T09:23:54.607Z,-2.40
2022-12-11T09:26:22.585Z,-2.30
2022-12-11T09:28:53.135Z,-2.30
2022-12-11T09:31:32.042Z,-2.40
2022-12-11T09:34:02.110Z,-2.30
2022-12-11T09:36:30.115Z,-2.30
2022-12-11T09:39:00.935Z,-2.30
2022-12-11T09:42:02.428Z,-2.30
2022-12-11T09:44:45.266Z,-2.30
2022-12-11T09:47:31.272Z,-2.30
2022-12-11T09:50:07.086Z,-2.40
2022-12-11T09:52:40.490Z,-2.40
2022-12-11T09:55:16.691Z,-2.40
2022-12-11T09:58:02.552Z,-2.40
2022-12-11T10:00:37.638Z,-2.30
2022-12-11T10:03:15.992Z,-2.40
2022-12-11T10:06:04.561Z,-2.40
2022-12-11T10:08:37.207Z,-2.50
2022-12-11T10:11:41.996Z,-2.60
2022-12-11T10:14:18.492Z,-2.60
2022-12-11T10:16:50.767Z,-2.60
2022-12-11T10:19:32.397Z,-2.60
2022-12-11T10:22:02.162Z,-2.60
2022-12-11T10:25:11.226Z,-2.60
2022-12-11T10:27:40.718Z,-2.50
2022-12-11T10:30:14.942Z,-2.50
2022-12-11T10:33:05.029Z,-2.50
2022-12-11T10:35:52.383Z,-2.50
2022-12-11T10:38:30.307Z,-2.50
2022-12-11T10:40:58.666Z,-2.50
2022-12-11T10:43:46.030Z,-2.50
2022-12-11T10:46:17.657Z,-2.50
2022-12-11T10:49:01.944Z,-2.50
2022-12-11T10:51:32.336Z,-2.50
2022-12-11T10:54:27.594Z,-2.50
2022-12-11T10:56:55.508Z,-2.40
2022-12-11T10:59:35.609Z,-2.40
2022-12-11T11:02:04.408Z,-2.40
2022-12-11T11:04:38.050Z,-2.30
2022-12-11T11:07:21.140Z,-2.20
2022-12-11T11:09:48.764Z,-2.20
2022-12-11T11:12:27.301Z,-2.20
2022-12-11T11:15:01.282Z,-2.20
2022-12-11T11:17:34.916Z,-2.20
2022-12-11T11:20:12.915Z,-2.30
2022-12-11T11:22:52.486Z,-2.20
2022-12-11T11:25:25.243Z,-2.20
2022-12-11T11:28:05.407Z,-2.20
2022-12-11T11:30:39.553Z,-2.20
2022-12-11T11:33:13.667Z,-2.20
2022-12-11T11:36:02.588Z,-2.20
2022-12-11T11:38:49.898Z,-2.20
2022-12-11T11:41:40.752Z,-2.10
2022-12-11T11:44:13.343Z,-2.20
2022-12-11T11:46:46.140Z,-2.20
2022-12-11T11:49:23.243Z,-2.20
2022-12-11T11:51:56.867Z,-2.40
2022-12-11T11:54:56.088Z,-2.40
2022-12-11T11:57:42.497Z,-2.40
2022-12-11T12:00:20.835Z,-2.40
2022-12-11T12:02:56.283Z,-2.50
2022-12-11T12:05:45.336Z,-2.40
2022-12-11T12:08:18.021Z,-2.40
2022-12-11T12:11:01.955Z,-2.40
2022-12-11T12:16:58.395Z,-2.40
2022-12-11T12:19:43.691Z,-2.40
2022-12-11T12:22:38.245Z,-2.40
2022-12-11T12:25:17.127Z,-2.40
2022-12-11T12:28:10.415Z,-2.40
2022-12-11T12:30:55.473Z,-2.50
2022-12-11T12:34:02.249Z,-2.40
2022-12-11T12:36:57.874Z,-2.40
2022-12-11T12:39:38.192Z,-2.40
2022-12-11T12:42:33.674Z,-2.40
2022-12-11T12:45:12.898Z,-2.40
2022-12-11T12:47:51.782Z,-2.40
2022-12-11T12:50:24.987Z,-2.30
2022-12-11T12:52:54.054Z,-2.30
2022-12-11T12:55:28.970Z,-2.30
2022-12-11T12:58:01.530Z,-2.30
2022-12-11T13:00:42.503Z,-2.30
2022-12-11T13:03:32.144Z,-2.30
2022-12-11T13:06:10.813Z,-2.40
2022-12-11T13:08:50.161Z,-2.30
2022-12-11T13:11:19.401Z,-2.40
2022-12-11T13:14:03.425Z,-2.40
2022-12-11T13:16:42.458Z,-2.30
2022-12-11T13:19:18.502Z,-2.30
2022-12-11T13:22:21.554Z,-2.30
2022-12-11T13:24:52.825Z,-2.30
2022-12-11T13:27:40.799Z,-2.30
2022-12-11T13:30:16.719Z,-2.20
2022-12-11T13:33:03.776Z,-2.30
2022-12-11T13:35:33.026Z,-2.40
2022-12-11T13:38:20.999Z,-2.40
2022-12-11T13:40:54.317Z,-2.50
2022-12-11T13:43:28.650Z,-2.50
2022-12-11T13:46:00.459Z,-2.60
2022-12-11T13:48:45.354Z,-2.60
2022-12-11T13:51:20.947Z,-2.70
2022-12-11T13:53:48.818Z,-2.70
2022-12-11T13:56:20.652Z,-2.80
2022-12-11T13:58:48.541Z,-2.80
2022-12-11T14:01:28.539Z,-2.80
2022-12-11T14:03:58.907Z,-2.80
2022-12-11T14:06:28.491Z,-2.90
2022-12-11T14:08:58.063Z,-2.90
2022-12-11T14:11:31.102Z,-2.90
2022-12-11T14:14:02.273Z,-2.90
2022-12-11T14:16:29.479Z,-2.90
2022-12-11T14:19:05.340Z,-2.80
2022-12-11T14:21:32.292Z,-2.90
2022-12-11T14:24:06.670Z,-2.90
2022-12-11T14:26:35.387Z,-2.90
2022-12-11T14:29:03.025Z,-2.80
2022-12-11T14:31:41.817Z,-2.90
2022-12-11T14:34:19.031Z,-2.90
2022-12-11T14:36:47.109Z,-2.90
2022-12-11T14:39:19.151Z,-2.90
2022-12-11T14:41:48.740Z,-2.90
2022-12-11T14:44:18.566Z,-2.90
2022-12-11T14:47:16.724Z,-2.90
2022-12-11T14:49:58.841Z,-2.90
2022-12-11T14:52:38.200Z,-2.90
2022-12-11T14:55:10.624Z,-2.90
2022-12-11T14:57:42.926Z,-2.90
2022-12-11T15:00:25.673Z,-3.00
2022-12-11T15:03:05.017Z,-3.00
2022-12-11T15:05:40.257Z,-3.00
2022-12-11T15:08:10.491Z,-2.80
2022-12-11T15:10:42.451Z,-3.00
2022-12-11T15:13:09.969Z,-3.00
2022-12-11T15:15:47.753Z,-3.00
2022-12-11T15:18:24.540Z,-3.00
2022-12-11T15:20:58.141Z,-3.00
2022-12-11T15:23:24.960Z,-3.00
2022-12-11T15:25:55.654Z,-3.00
2022-12-11T15:28:37.640Z,-3.10
2022-12-11T15:31:27.768Z,-3.10
2022-12-11T15:33:54.868Z,-3.00
2022-12-11T15:36:32.198Z,-3.10
2022-12-11T15:38:59.217Z,-3.10
2022-12-11T15:41:27.360Z,-3.10
2022-12-11T15:43:58.985Z,-3.10
2022-12-11T15:46:27.105Z,-3.10
2022-12-11T15:48:55.660Z,-3.10
2022-12-11T15:51:23.301Z,-3.10
2022-12-11T15:53:50.207Z,-3.10
2022-12-11T15:56:17.761Z,-3.10
2022-12-11T15:58:47.059Z,-3.20
2022-12-11T16:01:14.409Z,-3.20
2022-12-11T16:03:41.488Z,-3.20
2022-12-11T16:06:12.334Z,-3.20
2022-12-11T16:08:39.233Z,-3.20
2022-12-11T16:11:06.451Z,-3.20
2022-12-11T16:13:33.399Z,-3.20
2022-12-11T16:16:00.859Z,-3.20
2022-12-11T16:18:27.799Z,-3.20
2022-12-11T16:20:54.964Z,-3.10
2022-12-11T16:23:22.000Z,-3.20
2022-12-11T16:25:49.914Z,-3.10
2022-12-11T16:28:20.746Z,-3.10
2022-12-11T16:30:48.594Z,-3.10
2022-12-11T16:33:15.782Z,-3.10
2022-12-11T16:35:43.446Z,-3.10
2022-12-11T16:38:11.305Z,-3.10
2022-12-11T16:40:39.130Z,-3.10
2022-12-11T16:43:06.357Z,-3.10
2022-12-11T16:45:33.970Z,-3.10
2022-12-11T16:48:05.280Z,-3.10
2022-12-11T16:50:32.590Z,-3.10
2022-12-11T16:52:59.625Z,-3.00
2022-12-11T16:55:27.062Z,-3.10
2022-12-11T16:57:55.141Z,-3.10
2022-12-11T17:00:22.871Z,-3.10
2022-12-11T17:02:49.988Z,-3.10
2022-12-11T17:05:17.723Z,-3.00
2022-12-11T17:07:44.710Z,-3.10
2022-12-11T17:10:12.262Z,-3.00
2022-12-11T17:12:39.215Z,-3.00
2022-12-11T17:15:07.501Z,-3.10
2022-12-11T17:17:34.380Z,-3.00
2022-12-11T17:20:01.954Z,-3.00
2022-12-11T17:22:28.855Z,-3.00
2022-12-11T17:24:56.001Z,-3.00
2022-12-11T17:27:23.085Z,-3.00
2022-12-11T17:29:50.869Z,-3.10
2022-12-11T17:32:18.602Z,-3.10
2022-12-11T17:34:48.166Z,-3.00
2022-12-11T17:37:15.135Z,-3.10
2022-12-11T17:39:42.508Z,-3.10
2022-12-11T17:42:09.478Z,-3.00
2022-12-11T17:44:37.160Z,-3.00
2022-12-11T17:47:10.600Z,-3.00
2022-12-11T17:49:40.414Z,-3.10
2022-12-11T17:52:07.589Z,-3.10
2022-12-11T17:54:35.196Z,-3.10
2022-12-11T17:57:02.540Z,-3.10
2022-12-11T17:59:31.523Z,-3.10
2022-12-11T18:01:58.747Z,-3.20
2022-12-11T18:04:27.656Z,-3.20
2022-12-11T18:06:54.609Z,-3.20
2022-12-11T18:09:22.035Z,-3.20
2022-12-11T18:11:49.070Z,-3.20
2022-12-11T18:14:17.599Z,-3.20
2022-12-11T18:16:44.841Z,-3.20
2022-12-11T18:19:12.460Z,-3.20
2022-12-11T18:21:42.819Z,-3.30
2022-12-11T18:24:10.369Z,-3.30
2022-12-11T18:26:38.107Z,-3.30
2022-12-11T18:29:06.308Z,-3.30
2022-12-11T18:31:36.370Z,-3.30
2022-12-11T18:34:07.857Z,-3.30
2022-12-11T18:36:35.070Z,-3.30
2022-12-11T18:39:03.384Z,-3.30
2022-12-11T18:41:30.351Z,-3.30
2022-12-11T18:44:03.927Z,-3.30
2022-12-11T18:46:33.661Z,-3.30
2022-12-11T18:49:00.866Z,-3.30
2022-12-11T18:51:28.131Z,-3.30
2022-12-11T18:53:55.731Z,-3.30
2022-12-11T18:56:24.359Z,-3.30
2022-12-11T18:58:51.960Z,-3.30
2022-12-11T19:01:25.043Z,-3.20
2022-12-11T19:04:02.000Z,-3.20
2022-12-11T19:06:33.198Z,-3.20
2022-12-11T19:09:03.931Z,-3.20
2022-12-11T19:11:34.340Z,-3.20
2022-12-11T19:14:02.308Z,-3.20
2022-12-11T19:16:33.704Z,-3.20
2022-12-11T19:19:04.752Z,-3.20
2022-12-11T19:21:35.372Z,-3.20
2022-12-11T19:24:02.637Z,-3.20
2022-12-11T19:26:33.829Z,-3.20
2022-12-11T19:29:04.171Z,-3.20
2022-12-11T19:31:32.345Z,-3.20
2022-12-11T19:34:01.706Z,-3.20
2022-12-11T19:36:30.843Z,-3.20
2022-12-11T19:39:01.931Z,-3.20
2022-12-11T19:41:30.921Z,-3.20
2022-12-11T19:43:59.297Z,-3.20
2022-12-11T19:46:27.513Z,-3.20
2022-12-11T19:48:56.189Z,-3.20
2022-12-11T19:51:26.961Z,-3.20
2022-12-11T19:53:55.373Z,-3.20
2022-12-11T19:56:23.113Z,-3.10
2022-12-11T19:58:50.922Z,-3.10
2022-12-11T20:01:24.786Z,-3.10
2022-12-11T20:03:53.135Z,-3.10
2022-12-11T20:06:20.810Z,-3.10
2022-12-11T20:08:48.733Z,-3.10
2022-12-11T20:11:18.626Z,-3.10
2022-12-11T20:13:50.317Z,-3.10
2022-12-11T20:16:33.328Z,-3.10
2022-12-11T20:19:07.129Z,-3.10
2022-12-11T20:21:34.615Z,-3.10
2022-12-11T20:24:02.111Z,-3.00
2022-12-11T20:26:31.072Z,-3.00
2022-12-11T20:28:58.608Z,-3.00
2022-12-11T20:31:26.575Z,-3.00
2022-12-11T20:33:56.919Z,-3.00
2022-12-11T20:36:24.857Z,-2.90
2022-12-11T20:38:52.898Z,-2.90
2022-12-11T20:41:23.709Z,-2.90
2022-12-11T20:43:54.070Z,-2.90
2022-12-11T20:46:25.087Z,-2.90
2022-12-11T20:48:55.512Z,-2.90
2022-12-11T20:51:26.020Z,-2.90
2022-12-11T20:53:59.263Z,-2.90
2022-12-11T20:56:29.360Z,-2.90
2022-12-11T20:59:00.276Z,-2.80
2022-12-11T21:01:29.830Z,-2.80
2022-12-11T21:03:57.843Z,-2.80
2022-12-11T21:06:36.679Z,-2.80
2022-12-11T21:09:07.646Z,-2.70
2022-12-11T21:11:35.166Z,-2.70
2022-12-11T21:14:02.678Z,-2.70
2022-12-11T21:16:30.001Z,-2.60
2022-12-11T21:18:58.270Z,-2.60
2022-12-11T21:21:25.695Z,-2.60
2022-12-11T21:23:53.010Z,-2.50
2022-12-11T21:26:20.282Z,-2.60
2022-12-11T21:28:47.568Z,-2.50
2022-12-11T21:31:18.227Z,-2.50
2022-12-11T21:33:46.076Z,-2.50
2022-12-11T21:36:14.417Z,-2.40
2022-12-11T21:38:43.686Z,-2.40
2022-12-11T21:41:16.914Z,-2.40
2022-12-11T21:44:56.510Z,-2.40
2022-12-11T21:46:33.619Z,-2.30
2022-12-11T21:49:01.231Z,-2.30
2022-12-11T21:51:35.981Z,-2.30
2022-12-11T21:54:06.740Z,-2.30
2022-12-11T21:56:33.973Z,-2.20
2022-12-11T21:59:01.934Z,-2.20
2022-12-11T22:01:35.177Z,-2.20
2022-12-11T22:04:04.849Z,-2.20
2022-12-11T22:06:32.198Z,-2.10
2022-12-11T22:08:59.645Z,-2.10
2022-12-11T22:11:30.191Z,-2.00
2022-12-11T22:13:57.758Z,-2.00
2022-12-11T22:16:24.797Z,-2.00
2022-12-11T22:18:52.306Z,-2.00
2022-12-11T22:21:20.016Z,-1.90
2022-12-11T22:23:47.232Z,-1.90
2022-12-11T22:26:21.891Z,-1.90
2022-12-11T22:28:50.379Z,-1.90
2022-12-11T22:31:22.520Z,-1.80
2022-12-11T22:33:51.302Z,-1.80
2022-12-11T22:36:18.988Z,-1.80
2022-12-11T22:38:47.162Z,-1.80
2022-12-11T22:41:25.681Z,-1.80
2022-12-11T22:43:53.397Z,-1.80
2022-12-11T22:46:23.887Z,-1.80
2022-12-11T22:48:51.962Z,-1.80
2022-12-11T22:51:19.303Z,-1.80
2022-12-11T22:53:46.811Z,-1.80
2022-12-11T22:56:14.516Z,-1.70
2022-12-11T22:58:43.014Z,-1.70
2022-12-11T23:01:17.233Z,-1.80
2022-12-11T23:03:44.773Z,-1.70
2022-12-11T23:06:14.543Z,-1.80
2022-12-11T23:08:42.582Z,-1.80
2022-12-11T23:11:19.105Z,-1.80
2022-12-11T23:13:46.369Z,-1.80
2022-12-11T23:16:13.620Z,-1.80
2022-12-11T23:18:41.644Z,-1.80
2022-12-11T23:21:09.215Z,-1.80
2022-12-11T23:23:36.721Z,-1.80
2022-12-11T23:26:05.916Z,-1.80
2022-12-11T23:28:33.099Z,-1.80
2022-12-11T23:31:00.273Z,-1.70
2022-12-11T23:33:27.474Z,-1.80
2022-12-11T23:35:54.401Z,-1.70
2022-12-11T23:38:21.856Z,-1.70
2022-12-11T23:40:50.424Z,-1.70
2022-12-11T23:43:17.823Z,-1.70
2022-12-11T23:45:45.651Z,-1.70
2022-12-11T23:48:13.710Z,-1.70
2022-12-11T23:50:42.448Z,-1.70
2022-12-11T23:53:10.345Z,-1.70
2022-12-11T23:55:40.434Z,-1.70
2022-12-11T23:58:07.632Z,-1.70
